• Join FlightAware (Why Join?)
  • Login
  • US Flag 
05:27PM EDT


 

Airport Tracker/Info


-or-


 

Live Flight TrackerFlight Track Log ✈ VH-LDQ ✈ 05-May-2013 ✈ YBCG / OOL - YSBK / BWU

Flight Track Log - Related Links

Times and Time Zones

All times are in EDT time to prevent confusion due to time zone crossing. See the VH-LDQ flight status page for this flight to view local times or setup timezone preferences in your user account.

Time Position Orientation Groundspeed Altitude Reporting Facility
EDT Latitude Longitude Course Direction KTS MPH feet Rate Location/Type
01:07AM -28.1798 153.5154 179° South 132 152 500  Level Aus ATC (RADAR)
01:07AM -28.2104 153.5157 180° South 153 176 2,000 1,860 Climbing Aus ATC (RADAR)
01:08AM -28.2270 153.5090 197° South 154 177 2,700 2,220 Climbing FlightAware
01:08AM -28.2358 153.5070 197° South 164 189 3,300  Climbing Aus ATC (RADAR)
01:08AM -28.2420 153.5040 196° South 154 177 2,700 2,040 Descending FlightAware
01:09AM -28.2825 153.4786 196° South 166 191 5,700 2,880 Climbing Aus ATC (RADAR)
01:09AM -28.2989 153.4666 213° Southwest 167 192 6,500 1,860 Climbing Aus ATC (RADAR)
01:10AM -28.3215 153.4501 213° Southwest 165 190 7,600 1,620 Climbing Aus ATC (RADAR)
01:11AM -28.3560 153.4250 213° Southwest 156 180 9,100 1,500 Climbing FlightAware
01:11AM -28.3700 153.4150 212° Southwest 151 174 9,800 1,680 Climbing FlightAware
01:12AM -28.3980 153.3950 212° Southwest 147 169 11,100 1,620 Climbing FlightAware
01:13AM -28.4200 153.3780 214° Southwest 144 166 12,100 1,380 Climbing FlightAware
01:14AM -28.4430 153.3610 213° Southwest 149 171 13,000 1,560 Climbing FlightAware
01:14AM -28.4636 153.3475 213° Southwest 150 173 13,900 1,200 Climbing Aus ATC (RADAR)
01:14AM -28.4700 153.3420 213° Southwest 151 174 13,900 900 Level FlightAware
01:15AM -28.4900 153.3280 212° Southwest 149 171 14,700 1,260 Climbing FlightAware
01:16AM -28.5160 153.3090 213° Southwest 149 171 15,600 1,080 Climbing FlightAware
01:16AM -28.5420 153.2900 213° Southwest 152 175 16,400 1,020 Climbing FlightAware
01:17AM -28.5670 153.2720 212° Southwest 149 171 17,100 1,320 Climbing FlightAware
01:17AM -28.5809 153.2623 212° Southwest 150 173 17,700 1,620 Climbing Aus ATC (RADAR)
01:18AM -28.5897 153.2561 212° Southwest 149 171 18,000 -480 Climbing Aus ATC (RADAR)
01:18AM -28.5900 153.2550 212° Southwest 149 171 17,500 1,020 Descending FlightAware
01:18AM -28.6096 153.2419 212° Southwest 145 167 18,600 1,380 Climbing Aus ATC (RADAR)
01:19AM -28.6230 153.2310 212° Southwest 145 167 18,800 900 Climbing FlightAware
01:19AM -28.6493 153.2127 212° Southwest 145 167 19,700 540 Climbing Aus ATC (RADAR)
01:20AM -28.6540 153.2090 212° Southwest 146 168 19,300 -480 Descending FlightAware
01:20AM -28.6730 153.1950 213° Southwest 146 168 19,300 720 Level FlightAware
01:21AM -28.7010 153.1750 212° Southwest 144 166 20,400 720 Climbing FlightAware
01:22AM -28.7200 153.1610 213° Southwest 144 166 20,400 1,020 Level FlightAware
01:22AM -28.7510 153.1380 213° Southwest 148 170 21,900 1,380 Climbing FlightAware
01:23AM -28.7721 153.1226 213° Southwest 157 181 22,100 120 Climbing Aus ATC (RADAR)
01:23AM -28.7750 153.1210 213° Southwest 171 197 22,000  Descending FlightAware
01:24AM -28.8112 153.0945 213° Southwest 186 214 22,100  Climbing Aus ATC (RADAR)
01:24AM -28.8100 153.0960 213° Southwest 183 211 22,000  Descending FlightAware
01:24AM -28.8305 153.0804 213° Southwest 195 224 22,100 -300 Climbing Aus ATC (RADAR)
01:25AM -28.8460 153.0680 213° Southwest 216 249 21,800 -420 Descending FlightAware
01:25AM -28.8865 153.0405 213° Southwest 227 261 21,700 -420 Descending Aus ATC (RADAR)
01:25AM -28.8900 153.0410 213° Southwest 237 273 21,500 -780 Descending FlightAware
01:26AM -28.9320 153.0240 200° South 244 281 21,100 -660 Descending FlightAware
01:27AM -28.9790 153.0040 200° South 247 284 20,600 -600 Descending FlightAware
01:28AM -29.0230 152.9860 200° South 247 284 20,300 -540 Descending FlightAware
01:28AM -29.0700 152.9660 200° South 250 288 19,900 -600 Descending FlightAware
01:29AM -29.1150 152.9470 200° South 252 290 19,500 -420 Descending FlightAware
01:29AM -29.1568 152.9299 200° South 253 291 19,400 -480 Descending Aus ATC (RADAR)
01:30AM -29.1600 152.9280 200° South 252 290 19,200 -480 Descending FlightAware
01:30AM -29.1840 152.9183 200° South 252 290 19,200 -540 Level Aus ATC (RADAR)
01:30AM -29.2080 152.9080 200° South 251 289 18,800 -600 Descending FlightAware
01:31AM -29.2440 152.8930 200° South 252 290 18,600 -360 Descending FlightAware
01:31AM -29.2720 152.8816 200° South 254 292 18,500 -720 Descending Aus ATC (RADAR)
01:32AM -29.2970 152.8700 200° South 255 293 18,100 -660 Descending FlightAware
01:32AM -29.3460 152.8500 200° South 256 295 17,700 -480 Descending FlightAware
01:33AM -29.3942 152.8302 200° South 256 295 17,500 -600 Descending Aus ATC (RADAR)
01:33AM -29.3910 152.8300 200° South 256 295 17,300 -600 Descending FlightAware
01:34AM -29.4552 152.8044 200° South 256 295 17,000 -240 Descending Aus ATC (RADAR)
01:34AM -29.4550 152.8040 200° South 256 295 17,100 -600 Climbing FlightAware
01:34AM -29.4884 152.7911 200° South 257 296 16,700 -900 Descending Aus ATC (RADAR)
01:35AM -29.5020 152.7830 200° South 256 295 16,500 -300 Descending FlightAware
01:36AM -29.5470 152.7640 200° South 253 291 16,400 -120 Descending FlightAware
01:36AM -29.5840 152.7490 199° South 253 291 16,400  Level FlightAware
01:37AM -29.6220 152.7330 200° South 253 291 16,400  Level FlightAware
01:38AM -29.6590 152.7170 201° Southwest 253 291 16,400 -360 Level FlightAware
01:38AM -29.7009 152.7011 201° Southwest 235 270 16,100  Descending Aus ATC (RADAR)
01:38AM -29.6970 152.7020 201° Southwest 253 291 16,400 240 Climbing FlightAware
01:39AM -29.7430 152.6820 201° Southwest 253 291 16,400 -240 Level FlightAware
01:39AM -29.8011 152.6567 201° Southwest 231 266 16,100 -420 Descending Aus ATC (RADAR)
01:40AM -29.8210 152.6474 202° Southwest 231 266 16,100 60 Level Aus ATC (RADAR)
01:40AM -29.8567 152.6330 199° South 233 268 16,200 60 Climbing Aus ATC (RADAR)
01:41AM -29.9126 152.6086 201° Southwest 236 272 16,200  Level Aus ATC (RADAR)
01:42AM -29.9485 152.5939 200° South 234 269 16,200  Level Aus ATC (RADAR)
01:43AM -29.9945 152.5740 201° Southwest 237 273 16,200  Level Aus ATC (RADAR)
01:43AM -30.0352 152.5550 202° Southwest 237 273 16,200  Level Aus ATC (RADAR)
01:44AM -30.1087 152.5257 199° South 239 275 16,200  Level Aus ATC (RADAR)
01:45AM -30.1341 152.5133 203° Southwest 239 275 16,200  Level Aus ATC (RADAR)
01:45AM -30.1697 152.4975 201° Southwest 236 272 16,200 -120 Level Aus ATC (RADAR)
01:46AM -30.2201 152.4757 200° South 231 266 16,100 -120 Descending Aus ATC (RADAR)
01:47AM -30.2557 152.4605 200° South 233 268 16,100  Level Aus ATC (RADAR)
01:48AM -30.3071 152.4392 200° South 236 272 16,100  Level Aus ATC (RADAR)
01:48AM -30.3321 152.4273 202° Southwest 232 267 16,100  Level Aus ATC (RADAR)
01:49AM -30.3682 152.4118 200° South 235 270 16,100  Level Aus ATC (RADAR)
01:50AM -30.4305 152.3854 200° South 239 275 16,100  Level Aus ATC (RADAR)
01:50AM -30.4566 152.3746 200° South 239 275 16,100  Level Aus ATC (RADAR)
01:51AM -30.4918 152.3587 201° Southwest 234 269 16,100  Level Aus ATC (RADAR)
01:51AM -30.5358 152.3359 204° Southwest 232 267 16,100  Level Aus ATC (RADAR)
01:52AM -30.5697 152.3169 206° Southwest 233 268 16,100  Level Aus ATC (RADAR)
01:53AM -30.6038 152.2983 205° Southwest 232 267 16,100  Level Aus ATC (RADAR)
01:53AM -30.6387 152.2804 204° Southwest 234 269 16,100  Level Aus ATC (RADAR)
01:54AM -30.6731 152.2617 205° Southwest 235 270 16,100  Level Aus ATC (RADAR)
01:55AM -30.7434 152.2249 204° Southwest 237 273 16,100  Level Aus ATC (RADAR)
01:55AM -30.7686 152.2113 205° Southwest 239 275 16,100  Level Aus ATC (RADAR)
01:56AM -30.8047 152.1931 203° Southwest 242 278 16,100  Level Aus ATC (RADAR)
01:57AM -30.8547 152.1655 205° Southwest 240 276 16,100  Level Aus ATC (RADAR)
01:57AM -30.8907 152.1467 204° Southwest 243 280 16,100 60 Level Aus ATC (RADAR)
01:58AM -30.9367 152.1224 204° Southwest 241 277 16,200 60 Climbing Aus ATC (RADAR)
01:59AM -30.9618 152.1088 205° Southwest 240 276 16,200 -120 Level Aus ATC (RADAR)
01:59AM -31.0167 152.0783 205° Southwest 238 274 16,100 -120 Descending Aus ATC (RADAR)
02:00AM -31.0369 152.0679 204° Southwest 238 274 16,100  Level Aus ATC (RADAR)
02:00AM -31.0665 152.0517 205° Southwest 236 272 16,100  Level Aus ATC (RADAR)
02:01AM -31.1017 152.0335 204° Southwest 236 272 16,100  Level Aus ATC (RADAR)
02:02AM -31.1454 152.0087 206° Southwest 231 266 16,100  Level Aus ATC (RADAR)
02:02AM -31.1859 151.9874 204° Southwest 236 272 16,100 60 Level Aus ATC (RADAR)
02:03AM -31.2305 151.9633 205° Southwest 235 270 16,200  Climbing Aus ATC (RADAR)
02:03AM -31.2553 151.9500 205° Southwest 235 270 16,100  Descending Aus ATC (RADAR)
02:04AM -31.2947 151.9288 205° Southwest 235 270 16,200 60 Climbing Aus ATC (RADAR)
02:05AM -31.3292 151.9099 205° Southwest 232 267 16,200 -120 Level Aus ATC (RADAR)
02:06AM -31.3532 151.8969 205° Southwest 230 265 16,100 -120 Descending Aus ATC (RADAR)
02:06AM -31.4178 151.8618 205° Southwest 234 269 16,100 60 Level Aus ATC (RADAR)
02:07AM -31.4624 151.8380 205° Southwest 235 270 16,200 60 Climbing Aus ATC (RADAR)
02:08AM -31.4965 151.8187 206° Southwest 234 269 16,200  Level Aus ATC (RADAR)
02:08AM -31.5409 151.7950 205° Southwest 234 269 16,200  Level Aus ATC (RADAR)
02:09AM -31.5657 151.7810 206° Southwest 236 272 16,200 -120 Level Aus ATC (RADAR)
02:09AM -31.6005 151.7624 204° Southwest 237 273 16,100 -120 Descending Aus ATC (RADAR)
02:10AM -31.6555 151.7319 205° Southwest 240 276 16,100 -120 Level Aus ATC (RADAR)
02:10AM -31.6610 151.7290 205° Southwest 231 266 16,000  Descending FlightAware
02:11AM -31.6803 151.7187 205° Southwest 237 273 16,100  Climbing Aus ATC (RADAR)
02:11AM -31.6940 151.7110 205° Southwest 231 266 16,000  Descending FlightAware
02:12AM -31.7596 151.6748 205° Southwest 236 272 16,100 60 Climbing Aus ATC (RADAR)
02:13AM -31.7947 151.6558 205° Southwest 234 269 16,100  Level Aus ATC (RADAR)
02:13AM -31.8293 151.6370 205° Southwest 234 269 16,100 -180 Level Aus ATC (RADAR)
02:13AM -31.8270 151.6380 205° Southwest 236 272 16,000  Descending FlightAware
02:14AM -31.8690 151.6152 205° Southwest 234 269 16,100 60 Climbing Aus ATC (RADAR)
02:14AM -31.9037 151.5962 205° Southwest 234 269 16,100  Level Aus ATC (RADAR)
02:15AM -31.9534 151.5686 205° Southwest 235 270 16,100  Level Aus ATC (RADAR)
02:16AM -31.9779 151.5548 205° Southwest 233 268 16,100 60 Level Aus ATC (RADAR)
02:16AM -32.0122 151.5352 206° Southwest 233 268 16,200 60 Climbing Aus ATC (RADAR)
02:17AM -32.0564 151.5113 205° Southwest 232 267 16,200  Level Aus ATC (RADAR)
02:18AM -32.0951 151.4899 205° Southwest 232 267 16,200 -240 Level Aus ATC (RADAR)
02:18AM -32.1160 151.4780 205° Southwest 232 267 16,000  Descending FlightAware
02:18AM -32.1435 151.4628 205° Southwest 231 266 16,200  Climbing Aus ATC (RADAR)
02:19AM -32.1580 151.4550 205° Southwest 232 267 16,000  Descending FlightAware
02:19AM -32.2016 151.4307 205° Southwest 230 265 16,200  Climbing Aus ATC (RADAR)
02:19AM -32.1990 151.4330 205° Southwest 230 265 16,000 -300 Descending FlightAware
02:20AM -32.2450 151.4070 206° Southwest 230 265 16,000 120 Level FlightAware
02:21AM -32.2790 151.3879 206° Southwest 228 262 16,200  Climbing Aus ATC (RADAR)
02:21AM -32.2800 151.3870 206° Southwest 229 264 16,000  Descending FlightAware
02:21AM -32.3127 151.3690 206° Southwest 228 262 16,200  Climbing Aus ATC (RADAR)
02:21AM -32.3150 151.3680 206° Southwest 229 264 16,000  Descending FlightAware
02:22AM -32.3562 151.3451 206° Southwest 228 262 16,200  Climbing Aus ATC (RADAR)
02:22AM -32.3620 151.3420 206° Southwest 230 265 16,000  Descending FlightAware
02:23AM -32.3899 151.3264 206° Southwest 228 262 16,200  Climbing Aus ATC (RADAR)
02:23AM -32.4190 151.3100 206° Southwest 232 267 16,000  Descending FlightAware
02:23AM -32.4385 151.2996 206° Southwest 233 268 16,200  Climbing Aus ATC (RADAR)
02:24AM -32.4520 151.2920 206° Southwest 232 267 16,000 -240 Descending FlightAware
02:24AM -32.4900 151.2710 206° Southwest 232 267 16,000 300 Level FlightAware
02:25AM -32.4965 151.2663 206° Southwest 229 264 16,200  Climbing Aus ATC (RADAR)
02:25AM -32.5380 151.2390 209° Southwest 231 266 16,000  Descending FlightAware
02:26AM -32.5575 151.2267 209° Southwest 229 264 16,200 300 Climbing Aus ATC (RADAR)
02:26AM -32.5768 151.2162 205° Southwest 230 265 16,200 -600 Level Aus ATC (RADAR)
02:26AM -32.5750 151.2170 205° Southwest 232 267 16,000  Descending FlightAware
02:26AM -32.6103 151.1956 205° Southwest 231 266 16,200  Climbing Aus ATC (RADAR)
02:27AM -32.6180 151.1910 205° Southwest 232 267 16,000  Descending FlightAware
02:27AM -32.6533 151.1691 205° Southwest 230 265 16,200  Climbing Aus ATC (RADAR)
02:27AM -32.6560 151.1670 205° Southwest 230 265 16,000  Descending FlightAware
02:28AM -32.6863 151.1484 205° Southwest 230 265 16,200  Climbing Aus ATC (RADAR)
02:28AM -32.6940 151.1440 205° Southwest 231 266 16,000  Descending FlightAware
02:29AM -32.7291 151.1222 205° Southwest 229 264 16,200  Climbing Aus ATC (RADAR)
02:29AM -32.7360 151.1180 205° Southwest 231 266 16,000 -240 Descending FlightAware
02:30AM -32.7810 151.0900 208° Southwest 231 266 16,000 -300 Level FlightAware
02:30AM -32.8170 151.0680 207° Southwest 242 278 15,600 -480 Descending FlightAware
02:31AM -32.8505 151.0469 207° Southwest 244 281 15,500 -600 Descending Aus ATC (RADAR)
02:31AM -32.8570 151.0430 207° Southwest 250 288 15,200 -1,020 Descending FlightAware
02:32AM -32.9030 151.0140 208° Southwest 256 295 14,600 -900 Descending FlightAware
02:32AM -32.9480 150.9860 208° Southwest 255 293 14,000 -1,080 Descending FlightAware
02:33AM -32.9932 150.9572 208° Southwest 264 304 13,200 -1,620 Descending Aus ATC (RADAR)
02:33AM -32.9960 150.9560 208° Southwest 267 307 12,800 -1,800 Descending FlightAware
02:34AM -33.0400 150.9280 208° Southwest 267 307 11,800 -1,380 Descending FlightAware
02:34AM -33.0754 150.9064 208° Southwest 264 304 11,300 -1,380 Descending Aus ATC (RADAR)
02:34AM -33.0830 150.9020 208° Southwest 263 303 10,900 -1,380 Descending FlightAware
02:35AM -33.1131 150.8832 208° Southwest 260 299 10,500 -1,500 Descending Aus ATC (RADAR)
02:35AM -33.1330 150.8710 208° Southwest 253 291 9,800 -1,740 Descending FlightAware
02:36AM -33.1680 150.8490 208° Southwest 259 298 9,000 -1,200 Descending FlightAware
02:36AM -33.1928 150.8331 208° Southwest 258 297 8,800 -960 Descending Aus ATC (RADAR)
02:36AM -33.1910 150.8340 208° Southwest 256 295 8,600 -1,680 Descending FlightAware
02:37AM -33.2250 150.8130 207° Southwest 255 293 7,900 -1,320 Descending FlightAware
02:37AM -33.2500 150.7980 207° Southwest 254 292 7,400 -900 Descending FlightAware
02:37AM -33.2787 150.7923 207° Southwest 245 282 7,200 -1,200 Descending Aus ATC (RADAR)
02:37AM -33.2850 150.7940 207° Southwest 257 296 6,800 -1,500 Descending FlightAware
02:38AM -33.3070 150.7930 182° South 257 296 6,500 -1,080 Descending FlightAware
02:38AM -33.3380 150.7920 182° South 257 296 6,000 -1,080 Descending FlightAware
02:39AM -33.3630 150.7900 184° South 245 282 5,700 -840 Descending FlightAware
02:39AM -33.3900 150.7890 182° South 243 280 5,400 -720 Descending FlightAware
02:39AM -33.4190 150.7880 182° South 244 281 5,100 -540 Descending FlightAware
02:40AM -33.4475 150.7867 182° South 238 274 5,000 -420 Descending Aus ATC (RADAR)
02:40AM -33.4880 150.7860 182° South 207 238 4,700 -300 Descending FlightAware
02:41AM -33.5096 150.7844 182° South 218 251 4,700 -840 Level Aus ATC (RADAR)
02:41AM -33.5180 150.7840 182° South 208 239 4,300 -840 Descending FlightAware
02:41AM -33.5396 150.7833 182° South 216 249 4,300 -960 Level Aus ATC (RADAR)
02:41AM -33.5440 150.7830 182° South 214 246 3,900 -540 Descending FlightAware
02:42AM -33.5736 150.7818 182° South 209 241 4,000 -420 Climbing Aus ATC (RADAR)
02:42AM -33.5740 150.7820 182° South 194 223 3,700 -1,320 Descending FlightAware
02:42AM -33.5830 150.7820 180° South 196 226 3,700  Level FlightAware
02:42AM -33.6000 150.7870 166° South 186 214 3,700  Level FlightAware
02:43AM -33.6200 150.7960 159° South 175 201 3,700 -180 Level FlightAware
02:43AM -33.6401 150.8048 159° South 187 215 3,600 -840 Descending Aus ATC (RADAR)
02:43AM -33.6450 150.8070 159° South 189 217 3,300 -1,080 Descending FlightAware
02:44AM -33.6708 150.8187 159° South 201 231 3,000 -1,200 Descending Aus ATC (RADAR)
02:44AM -33.6710 150.8190 159° South 207 238 2,700 -1,500 Descending FlightAware
02:44AM -33.6930 150.8300 157° South 211 243 2,300 -600 Descending FlightAware
02:45AM -33.7150 150.8410 157° South 191 220 2,200  Descending FlightAware
02:45AM -33.7330 150.8490 160° South 188 216 2,300  Climbing FlightAware
02:45AM -33.7520 150.8590 156° South 177 204 2,200 -180 Descending FlightAware
02:46AM -33.7718 150.8675 156° South 183 211 2,200 -420 Level Aus ATC (RADAR)
02:46AM -33.7770 150.8710 156° South 178 205 2,000 -240 Descending FlightAware
02:46AM -33.7908 150.8769 156° South 177 204 2,100 -480 Climbing Aus ATC (RADAR)
02:46AM -33.7960 150.8800 156° South 174 200 1,800 -360 Descending FlightAware
02:47AM -33.8164 150.8899 156° South 171 197 1,900 -240 Climbing Aus ATC (RADAR)
02:47AM -33.8140 150.8890 156° South 163 188 1,700 -720 Descending FlightAware
02:47AM -33.8400 150.9010 159° South 156 180 1,500 -420 Descending FlightAware
02:48AM -33.8570 150.9090 159° South 138 159 1,300 -300 Descending FlightAware
02:48AM -33.8688 150.9150 159° South 134 154 1,300 -600 Level Aus ATC (RADAR)
02:48AM -33.8730 150.9170 159° South 115 132 1,000 -720 Descending FlightAware
02:49AM -33.8850 150.9250 151° Southeast 106 122 900 -300 Descending FlightAware
02:49AM -33.8900 150.9320 131° Southeast 96 110 800  Descending FlightAware
02:49AM -33.8959 150.9414 131° Southeast 99 114 900 -420 Climbing Aus ATC (RADAR)
02:49AM -33.8970 150.9440 131° Southeast 95 109 600 -900 Descending FlightAware
02:50AM -33.9040 150.9560 125° Southeast 96 110 400 -600 Descending FlightAware
02:50AM -33.9110 150.9680 125° Southeast 96 110 100 -600 Descending FlightAware
02:51AM -33.9150 150.9760 121° Southeast 94 108 -300 Descending FlightAware
02:51AM -33.9210 150.9880 121° Southeast 94 108  Level FlightAware